Time;durP1;ratioP1;P1;durP2;ratioP2;P2;SDS_P1;SDS_P2;PMS_P1;PMS_P2;Temp;Humidity;BMP_temperature;BMP_pressure;BME280_temperature;BME280_humidity;BME280_pressure;Samples;Min_cycle;Max_cycle;Signal;HPM_P1;HPM_P2
2021/09/28 00:00:47;;;;;;;12.10;5.30;;;21.40;61.30;;;;;;4994366;28;20577;-68
2021/09/28 00:03:13;;;;;;;15.25;5.28;;;21.50;61.30;;;;;;4994827;28;20041;-68
2021/09/28 00:05:39;;;;;;;16.33;5.43;;;21.40;61.30;;;;;;4994085;28;20334;-67
2021/09/28 00:08:04;;;;;;;12.20;4.95;;;21.40;61.30;;;;;;4995652;28;20415;-69
2021/09/28 00:10:31;;;;;;;12.50;5.70;;;21.40;61.30;;;;;;4994065;28;20045;-68
2021/09/28 00:12:57;;;;;;;13.80;5.05;;;21.40;61.30;;;;;;4995809;28;20520;-69
2021/09/28 00:15:23;;;;;;;11.70;4.95;;;21.40;61.30;;;;;;4992840;28;20041;-69
2021/09/28 00:17:49;;;;;;;13.13;5.55;;;21.50;61.30;;;;;;4994456;28;20034;-68
2021/09/28 00:20:14;;;;;;;11.93;4.85;;;21.40;61.30;;;;;;4997992;28;20046;-69
2021/09/28 00:22:40;;;;;;;13.43;5.35;;;21.40;61.30;;;;;;4998451;28;20045;-71
2021/09/28 00:25:08;;;;;;;13.25;5.22;;;21.40;61.30;;;;;;4996142;28;20578;-71
2021/09/28 00:27:34;;;;;;;13.88;5.55;;;21.40;61.30;;;;;;4996743;28;20034;-69
2021/09/28 00:30:01;;;;;;;13.30;4.88;;;21.40;61.30;;;;;;4997290;28;20824;-69
2021/09/28 00:32:27;;;;;;;12.88;4.90;;;21.40;61.30;;;;;;4995462;28;20563;-69
2021/09/28 00:34:53;;;;;;;10.90;4.93;;;21.40;61.30;;;;;;4996853;28;20081;-69
2021/09/28 00:37:19;;;;;;;10.90;4.78;;;21.40;61.30;;;;;;4997915;28;20053;-68
2021/09/28 00:39:44;;;;;;;12.45;4.60;;;21.40;61.30;;;;;;4999676;28;20506;-68
2021/09/28 00:42:10;;;;;;;12.20;4.82;;;21.40;61.30;;;;;;4997162;28;20103;-68
2021/09/28 00:44:43;;;;;;;11.45;4.50;;;21.50;61.30;;;;;;4998222;28;20040;-72
2021/09/28 00:47:10;;;;;;;11.85;4.95;;;21.40;61.20;;;;;;4997585;28;20046;-71
2021/09/28 00:49:42;;;;;;;13.27;5.45;;;21.40;61.30;;;;;;4999010;28;20507;-72
2021/09/28 00:52:09;;;;;;;10.55;4.00;;;21.50;61.30;;;;;;4997282;28;20043;-72
2021/09/28 00:54:37;;;;;;;14.20;4.72;;;21.50;61.30;;;;;;4996319;28;20035;-70
2021/09/28 00:57:07;;;;;;;12.60;4.20;;;21.40;61.20;;;;;;4996480;28;20042;-70
2021/09/28 00:59:38;;;;;;;11.73;4.35;;;21.40;61.20;;;;;;4993266;28;20042;-71
2021/09/28 01:02:06;;;;;;;12.35;4.28;;;21.40;61.20;;;;;;4997847;28;20137;-71
2021/09/28 01:04:31;;;;;;;9.63;3.90;;;21.40;61.20;;;;;;4997630;28;20045;-70
2021/09/28 01:07:02;;;;;;;10.48;4.10;;;21.40;61.20;;;;;;4996200;28;20049;-68
2021/09/28 01:09:28;;;;;;;10.25;4.18;;;21.50;61.30;;;;;;4996174;28;20060;-68
2021/09/28 01:11:54;;;;;;;12.00;4.43;;;21.40;61.20;;;;;;4996857;28;20085;-68
2021/09/28 01:14:20;;;;;;;10.82;3.70;;;21.40;61.20;;;;;;4995467;28;20038;-68
2021/09/28 01:16:46;;;;;;;10.48;3.95;;;21.40;61.20;;;;;;4998416;28;20050;-68
2021/09/28 01:19:12;;;;;;;12.27;4.45;;;21.40;61.20;;;;;;4996554;28;20125;-69
2021/09/28 01:21:38;;;;;;;10.32;4.22;;;21.40;61.20;;;;;;4997573;28;20038;-68
2021/09/28 01:24:06;;;;;;;10.68;3.78;;;21.50;61.30;;;;;;4994984;28;20055;-68
2021/09/28 01:26:32;;;;;;;10.95;4.22;;;21.40;61.20;;;;;;4995567;28;20511;-68
2021/09/28 01:28:59;;;;;;;9.48;3.45;;;21.50;61.20;;;;;;4995261;28;20044;-71
2021/09/28 01:31:25;;;;;;;7.68;3.55;;;21.40;61.20;;;;;;4996648;28;20049;-72
2021/09/28 01:33:51;;;;;;;10.40;3.90;;;21.40;61.20;;;;;;4997369;28;20038;-70
2021/09/28 01:36:17;;;;;;;10.68;4.22;;;21.40;61.20;;;;;;4996802;28;20034;-71
2021/09/28 01:38:43;;;;;;;10.50;3.85;;;21.40;61.20;;;;;;4998369;28;20102;-71
2021/09/28 01:41:10;;;;;;;14.48;4.00;;;21.40;61.20;;;;;;4996881;28;20495;-70
2021/09/28 01:43:35;;;;;;;11.52;3.72;;;21.40;61.20;;;;;;4995271;28;20042;-72
2021/09/28 01:46:03;;;;;;;9.13;3.60;;;21.40;61.20;;;;;;4992965;28;20582;-69
2021/09/28 01:48:37;;;;;;;11.95;3.88;;;21.50;61.30;;;;;;4994850;28;20050;-70
2021/09/28 01:51:03;;;;;;;8.98;3.60;;;21.50;61.30;;;;;;4998313;28;20038;-71
2021/09/28 01:53:29;;;;;;;9.68;3.70;;;21.40;61.20;;;;;;4995532;28;20030;-71
2021/09/28 01:55:54;;;;;;;10.90;4.18;;;21.40;61.20;;;;;;4996407;28;20452;-70
2021/09/28 01:58:20;;;;;;;8.50;3.20;;;21.40;61.20;;;;;;4996460;28;20116;-70
2021/09/28 02:00:45;;;;;;;10.02;3.25;;;21.40;61.20;;;;;;4996271;28;20173;-71
2021/09/28 02:03:11;;;;;;;9.95;3.78;;;21.50;61.30;;;;;;4997881;28;20117;-71
2021/09/28 02:05:39;;;;;;;6.70;2.70;;;21.40;61.20;;;;;;4997478;28;20533;-71
2021/09/28 02:08:05;;;;;;;11.23;3.25;;;21.50;61.20;;;;;;4996014;28;20057;-71
2021/09/28 02:10:31;;;;;;;11.10;3.22;;;21.40;61.20;;;;;;4994262;28;20045;-71
2021/09/28 02:12:58;;;;;;;9.20;2.88;;;21.40;61.20;;;;;;4998561;28;20050;-68
2021/09/28 02:15:23;;;;;;;9.88;3.00;;;21.40;61.20;;;;;;4994585;28;20050;-69
2021/09/28 02:17:49;;;;;;;7.55;2.97;;;21.40;61.20;;;;;;4996576;28;20052;-68
2021/09/28 02:20:15;;;;;;;8.63;3.17;;;21.50;61.20;;;;;;4995070;28;20503;-70
2021/09/28 02:22:41;;;;;;;7.47;2.75;;;21.40;61.20;;;;;;4996812;28;20518;-71
2021/09/28 02:25:08;;;;;;;7.53;2.92;;;21.40;61.20;;;;;;4995330;28;20804;-70
2021/09/28 02:27:35;;;;;;;9.18;3.20;;;21.40;61.20;;;;;;4996278;28;20411;-71
2021/09/28 02:30:00;;;;;;;10.18;3.00;;;21.40;61.20;;;;;;4997307;28;20042;-71
2021/09/28 02:32:26;;;;;;;8.02;3.17;;;21.40;61.20;;;;;;4993978;28;20052;-70
2021/09/28 02:34:52;;;;;;;8.73;2.97;;;21.50;61.20;;;;;;4993154;28;20038;-70
2021/09/28 02:37:18;;;;;;;7.78;2.55;;;21.40;61.20;;;;;;4994495;28;20096;-71
2021/09/28 02:39:44;;;;;;;7.97;2.75;;;21.40;61.20;;;;;;4995673;28;20419;-70
2021/09/28 02:42:11;;;;;;;8.05;2.50;;;21.50;61.20;;;;;;4993419;28;20033;-71
2021/09/28 02:44:37;;;;;;;9.18;3.42;;;21.40;61.20;;;;;;4995642;28;20105;-71
2021/09/28 02:47:03;;;;;;;9.05;3.28;;;21.40;61.20;;;;;;4998329;28;20048;-72
2021/09/28 02:49:29;;;;;;;8.57;2.97;;;21.40;61.20;;;;;;4994446;28;20035;-70
2021/09/28 02:51:55;;;;;;;6.80;2.80;;;21.40;61.20;;;;;;4996382;28;20049;-70
2021/09/28 02:54:20;;;;;;;7.68;2.75;;;21.40;61.20;;;;;;4995903;28;20077;-71
2021/09/28 02:56:46;;;;;;;6.70;2.63;;;21.40;61.20;;;;;;4996320;28;20073;-71
2021/09/28 02:59:12;;;;;;;7.15;2.50;;;21.40;61.20;;;;;;4994425;28;20049;-71
2021/09/28 03:01:38;;;;;;;7.40;2.78;;;21.40;61.20;;;;;;4995763;28;20082;-71
2021/09/28 03:04:05;;;;;;;7.90;2.50;;;21.40;61.20;;;;;;4995427;28;20065;-71
2021/09/28 03:06:31;;;;;;;7.72;2.85;;;21.40;61.20;;;;;;4997106;28;20046;-71
2021/09/28 03:08:57;;;;;;;7.30;2.67;;;21.40;61.20;;;;;;4995235;28;20033;-70
2021/09/28 03:11:26;;;;;;;9.40;3.40;;;21.40;61.20;;;;;;4992552;28;20046;-70
2021/09/28 03:13:53;;;;;;;9.25;2.60;;;21.40;61.20;;;;;;4993997;28;20404;-68
2021/09/28 03:16:20;;;;;;;7.25;2.80;;;21.40;61.20;;;;;;4992035;28;20125;-68
2021/09/28 03:18:45;;;;;;;10.05;2.88;;;21.40;61.20;;;;;;4994830;28;20037;-68
2021/09/28 03:21:11;;;;;;;7.25;2.38;;;21.40;61.20;;;;;;4993969;28;20057;-67
2021/09/28 03:23:37;;;;;;;8.65;2.85;;;21.40;61.20;;;;;;4993267;28;20104;-68
2021/09/28 03:26:03;;;;;;;6.68;2.13;;;21.40;61.20;;;;;;4993159;28;20129;-68
2021/09/28 03:28:28;;;;;;;6.78;2.38;;;21.40;61.10;;;;;;4994949;28;20034;-68
2021/09/28 03:30:54;;;;;;;6.82;2.25;;;21.40;61.10;;;;;;4992924;28;20414;-68
2021/09/28 03:33:20;;;;;;;7.53;2.40;;;21.40;61.10;;;;;;4993155;28;20097;-68
2021/09/28 03:35:45;;;;;;;7.78;2.50;;;21.40;61.10;;;;;;4995542;28;20037;-69
2021/09/28 03:38:11;;;;;;;7.50;2.75;;;21.40;61.10;;;;;;4996081;28;20066;-70
2021/09/28 03:40:39;;;;;;;7.80;2.42;;;21.40;61.10;;;;;;4993952;28;20124;-71
2021/09/28 03:43:06;;;;;;;8.43;2.88;;;21.40;61.10;;;;;;4993067;28;20042;-70
2021/09/28 03:45:33;;;;;;;6.95;2.60;;;21.40;61.10;;;;;;4993181;28;20042;-71
2021/09/28 03:47:58;;;;;;;6.72;2.38;;;21.40;61.10;;;;;;4991701;28;20049;-71
2021/09/28 03:50:25;;;;;;;6.53;2.50;;;21.40;61.20;;;;;;4993940;28;20034;-71
2021/09/28 03:52:51;;;;;;;8.65;2.60;;;21.50;61.20;;;;;;4994453;28;20046;-70
2021/09/28 03:55:19;;;;;;;5.90;2.13;;;21.40;61.10;;;;;;5007018;28;20807;-70
2021/09/28 03:57:52;;;;;;;17.23;2.95;;;21.40;61.10;;;;;;5001358;28;20461;-72
2021/09/28 04:00:20;;;;;;;18.50;3.25;;;21.40;61.10;;;;;;4998994;28;20536;-72
2021/09/28 04:02:46;;;;;;;30.35;5.88;;;21.40;61.10;;;;;;4998315;28;20580;-72
2021/09/28 04:05:13;;;;;;;44.67;8.02;;;21.50;61.20;;;;;;5000096;28;20045;-72
2021/09/28 04:07:39;;;;;;;38.72;7.43;;;21.40;61.10;;;;;;5000831;28;20034;-74
2021/09/28 04:10:07;;;;;;;55.40;10.02;;;21.40;61.10;;;;;;4998136;28;20119;-73
2021/09/28 04:12:33;;;;;;;50.20;8.18;;;21.40;61.10;;;;;;5001161;28;20553;-72
2021/09/28 04:15:00;;;;;;;56.03;10.35;;;21.40;61.10;;;;;;5000307;28;20053;-73
2021/09/28 04:17:26;;;;;;;63.35;12.23;;;21.40;61.10;;;;;;5001577;28;20064;-69
2021/09/28 04:19:52;;;;;;;55.47;10.32;;;21.40;61.10;;;;;;5000404;28;20085;-68
2021/09/28 04:22:20;;;;;;;63.65;11.93;;;21.40;61.10;;;;;;4999724;28;20044;-70
2021/09/28 04:24:46;;;;;;;73.22;12.52;;;21.40;61.10;;;;;;4999393;28;20046;-70
2021/09/28 04:27:12;;;;;;;63.85;12.38;;;21.50;61.20;;;;;;4999153;28;20053;-70
2021/09/28 04:29:38;;;;;;;60.33;12.68;;;21.40;61.10;;;;;;4999927;28;20035;-69
2021/09/28 04:32:07;;;;;;;61.47;12.82;;;21.40;61.20;;;;;;4999713;28;20049;-69
2021/09/28 04:34:33;;;;;;;67.60;12.43;;;21.40;61.10;;;;;;5002933;28;20042;-71
2021/09/28 04:36:58;;;;;;;67.43;13.40;;;21.50;61.20;;;;;;4999601;28;20034;-71
2021/09/28 04:39:24;;;;;;;70.07;14.15;;;21.40;61.20;;;;;;5000310;28;20773;-72
2021/09/28 04:41:50;;;;;;;67.35;12.82;;;21.40;61.20;;;;;;5002558;28;20077;-70
2021/09/28 04:44:15;;;;;;;59.05;11.95;;;21.40;61.20;;;;;;5000888;28;20029;-69
2021/09/28 04:46:41;;;;;;;58.50;11.38;;;21.40;61.20;;;;;;5001379;28;20069;-70
2021/09/28 04:49:07;;;;;;;58.00;11.35;;;21.40;61.20;;;;;;5000107;28;20069;-70
2021/09/28 04:51:32;;;;;;;48.20;10.25;;;21.40;61.20;;;;;;5000239;28;20137;-69
2021/09/28 04:53:58;;;;;;;44.20;10.50;;;21.40;61.20;;;;;;5000661;28;20073;-70
2021/09/28 04:56:24;;;;;;;51.80;11.27;;;21.40;61.20;;;;;;4999473;28;20034;-68
2021/09/28 04:58:49;;;;;;;59.15;9.52;;;21.40;61.20;;;;;;5000392;28;20034;-70
2021/09/28 05:01:15;;;;;;;46.45;8.85;;;21.40;61.20;;;;;;5000205;28;20824;-69
2021/09/28 05:03:41;;;;;;;51.53;10.13;;;21.40;61.20;;;;;;5001049;28;20506;-70
2021/09/28 05:06:07;;;;;;;43.15;8.90;;;21.40;61.20;;;;;;5000050;28;20041;-69
2021/09/28 05:08:33;;;;;;;44.40;9.23;;;21.40;61.20;;;;;;5000027;28;20049;-70
2021/09/28 05:10:59;;;;;;;42.92;9.60;;;21.40;61.20;;;;;;4996606;28;20046;-69
2021/09/28 05:13:25;;;;;;;35.72;8.32;;;21.50;61.20;;;;;;5000958;28;20065;-68
2021/09/28 05:15:50;;;;;;;31.73;8.77;;;21.40;61.20;;;;;;4998900;28;20129;-69
2021/09/28 05:18:16;;;;;;;38.05;8.73;;;21.50;61.20;;;;;;4996784;28;20053;-70
2021/09/28 05:20:42;;;;;;;40.22;8.40;;;21.40;61.40;;;;;;4997778;28;20088;-69
2021/09/28 05:23:08;;;;;;;33.72;6.88;;;21.50;61.20;;;;;;4996097;28;20042;-69
2021/09/28 05:25:33;;;;;;;29.73;7.15;;;21.40;61.20;;;;;;4998659;28;20125;-70
2021/09/28 05:27:59;;;;;;;33.97;7.63;;;21.50;61.20;;;;;;4999048;28;20129;-69
2021/09/28 05:30:25;;;;;;;27.35;7.05;;;21.40;61.20;;;;;;4997744;28;20117;-70
2021/09/28 05:32:51;;;;;;;29.95;7.47;;;21.40;61.10;;;;;;4995430;28;20961;-69
2021/09/28 05:35:17;;;;;;;30.33;8.32;;;21.50;61.10;;;;;;4997719;28;20053;-68
2021/09/28 05:37:43;;;;;;;27.67;8.88;;;21.40;61.00;;;;;;4997669;28;20034;-69
2021/09/28 05:40:09;;;;;;;26.38;8.32;;;21.40;60.80;;;;;;4999839;28;20080;-70
2021/09/28 05:42:34;;;;;;;24.70;8.45;;;21.40;60.90;;;;;;4997789;28;20097;-69
2021/09/28 05:45:00;;;;;;;28.98;8.98;;;21.40;60.90;;;;;;4997209;28;20038;-69
2021/09/28 05:47:26;;;;;;;24.52;8.98;;;21.40;60.80;;;;;;4995275;28;20046;-70
2021/09/28 05:49:52;;;;;;;22.48;7.35;;;21.40;60.80;;;;;;4995585;28;20046;-69
2021/09/28 05:52:19;;;;;;;26.73;9.18;;;21.40;60.90;;;;;;4995019;28;20379;-68
2021/09/28 05:54:47;;;;;;;26.13;8.05;;;21.50;60.80;;;;;;4996839;28;20089;-69
2021/09/28 05:57:23;;;;;;;20.60;7.50;;;21.40;60.80;;;;;;4994853;28;20388;-69
2021/09/28 05:59:50;;;;;;;24.30;7.55;;;21.40;60.80;;;;;;4995207;28;20709;-70
2021/09/28 06:02:20;;;;;;;24.00;7.25;;;21.40;60.80;;;;;;4995568;28;20487;-69
2021/09/28 06:04:47;;;;;;;22.13;7.35;;;21.40;60.80;;;;;;4998212;28;20041;-69
2021/09/28 06:07:14;;;;;;;22.02;6.75;;;21.40;60.80;;;;;;4997412;28;20042;-69
2021/09/28 06:09:41;;;;;;;30.15;6.00;;;21.40;60.80;;;;;;4998553;28;20044;-69
2021/09/28 06:12:09;;;;;;;23.20;6.20;;;21.40;60.80;;;;;;4995787;28;20117;-69
2021/09/28 06:14:36;;;;;;;22.30;6.00;;;21.40;60.80;;;;;;4997167;28;20152;-69
2021/09/28 06:17:02;;;;;;;19.80;6.15;;;21.40;60.80;;;;;;4994998;28;20645;-69
2021/09/28 06:19:29;;;;;;;18.75;5.07;;;21.40;60.80;;;;;;4996583;28;20031;-69
2021/09/28 06:21:55;;;;;;;25.45;6.07;;;21.40;60.90;;;;;;4997734;28;20038;-69
2021/09/28 06:24:22;;;;;;;24.70;5.25;;;21.40;60.90;;;;;;4995491;28;20117;-69
2021/09/28 06:26:49;;;;;;;23.60;5.43;;;21.40;60.90;;;;;;4994919;28;20053;-69
2021/09/28 06:29:15;;;;;;;23.70;5.25;;;21.40;60.90;;;;;;4995292;28;20050;-70
2021/09/28 06:31:42;;;;;;;16.30;4.90;;;21.40;60.90;;;;;;4997329;28;20136;-69
2021/09/28 06:34:10;;;;;;;20.75;5.50;;;21.40;60.90;;;;;;4996154;28;20038;-69
2021/09/28 06:36:36;;;;;;;18.52;5.20;;;21.40;60.90;;;;;;4995271;28;20038;-69
2021/09/28 06:39:03;;;;;;;17.92;4.60;;;21.40;60.90;;;;;;4997186;28;20044;-69
2021/09/28 06:41:29;;;;;;;19.65;4.40;;;21.40;60.90;;;;;;4996478;28;20400;-69
2021/09/28 06:43:55;;;;;;;18.88;4.70;;;21.40;60.90;;;;;;4996595;28;20053;-69
2021/09/28 06:46:21;;;;;;;16.77;4.88;;;21.40;60.90;;;;;;4993145;28;20067;-70
2021/09/28 06:48:48;;;;;;;13.63;4.55;;;21.40;60.90;;;;;;4996958;28;20073;-70
2021/09/28 06:51:14;;;;;;;19.50;4.68;;;21.40;60.90;;;;;;4995673;28;20511;-68
2021/09/28 06:53:39;;;;;;;15.43;4.05;;;21.40;60.90;;;;;;4996620;28;20058;-69
2021/09/28 06:56:05;;;;;;;21.83;4.45;;;21.50;61.00;;;;;;4997111;28;20065;-68
2021/09/28 06:58:31;;;;;;;20.80;4.65;;;21.40;60.90;;;;;;4994252;28;20061;-69
2021/09/28 07:00:56;;;;;;;18.02;4.60;;;21.40;60.90;;;;;;4993150;28;20042;-69
2021/09/28 07:03:22;;;;;;;14.10;4.25;;;21.50;61.00;;;;;;4994617;28;20403;-69
2021/09/28 07:05:48;;;;;;;17.73;4.22;;;21.40;60.90;;;;;;4995622;28;20408;-70
2021/09/28 07:08:17;;;;;;;14.13;4.15;;;21.40;60.90;;;;;;4994108;28;20038;-67
2021/09/28 07:10:43;;;;;;;12.30;3.80;;;21.40;60.90;;;;;;4994147;28;20048;-69
2021/09/28 07:13:10;;;;;;;13.05;3.60;;;21.40;60.90;;;;;;4996002;28;20049;-69
2021/09/28 07:15:36;;;;;;;10.82;3.70;;;21.40;61.00;;;;;;4995943;28;20096;-69
2021/09/28 07:18:02;;;;;;;13.15;3.92;;;21.40;60.90;;;;;;4996892;28;20042;-69
2021/09/28 07:20:29;;;;;;;16.77;4.00;;;21.50;61.00;;;;;;4994251;28;20076;-69
2021/09/28 07:22:54;;;;;;;16.25;4.03;;;21.40;60.90;;;;;;4994378;28;20141;-69
2021/09/28 07:25:20;;;;;;;13.48;3.83;;;21.40;61.00;;;;;;4995534;28;20136;-70
2021/09/28 07:27:46;;;;;;;13.10;3.90;;;21.40;60.90;;;;;;4995715;28;20069;-68
2021/09/28 07:30:12;;;;;;;16.30;4.30;;;21.40;60.90;;;;;;4995272;28;20594;-69
2021/09/28 07:32:38;;;;;;;14.48;3.70;;;21.50;61.00;;;;;;4995512;28;20064;-69
2021/09/28 07:35:07;;;;;;;18.52;4.40;;;21.40;61.00;;;;;;4996365;28;20038;-69
2021/09/28 07:37:34;;;;;;;11.25;3.25;;;21.40;61.00;;;;;;4994727;28;20205;-69
2021/09/28 07:40:00;;;;;;;10.98;3.40;;;21.40;61.00;;;;;;4994355;28;20041;-69
2021/09/28 07:42:26;;;;;;;13.60;4.10;;;21.50;61.00;;;;;;4996925;28;20046;-68
2021/09/28 07:44:54;;;;;;;15.82;4.20;;;21.40;61.00;;;;;;4994702;28;20554;-69
2021/09/28 07:47:19;;;;;;;14.02;3.88;;;21.40;60.90;;;;;;4994007;28;20049;-68
2021/09/28 07:49:46;;;;;;;13.95;3.92;;;21.40;61.00;;;;;;4994881;28;20049;-69
2021/09/28 07:52:12;;;;;;;12.20;3.53;;;21.40;61.00;;;;;;5008959;28;20060;-68
2021/09/28 07:54:39;;;;;;;9.15;2.90;;;21.40;61.00;;;;;;4994433;28;20519;-69
2021/09/28 07:57:05;;;;;;;12.38;3.53;;;21.40;60.90;;;;;;4992125;28;20034;-69
2021/09/28 07:59:31;;;;;;;12.63;3.58;;;21.40;61.00;;;;;;4997442;28;20385;-69
2021/09/28 08:01:57;;;;;;;15.95;3.80;;;21.40;60.90;;;;;;4993298;28;20508;-69
2021/09/28 08:04:23;;;;;;;13.15;3.80;;;21.40;61.00;;;;;;4995589;28;20048;-69
2021/09/28 08:06:48;;;;;;;9.55;3.17;;;21.40;61.00;;;;;;4995424;28;20407;-69
2021/09/28 08:09:16;;;;;;;11.40;3.50;;;21.40;61.00;;;;;;4993889;28;20562;-68
2021/09/28 08:11:41;;;;;;;16.08;3.28;;;21.40;61.00;;;;;;4994535;28;20117;-71
2021/09/28 08:14:10;;;;;;;10.57;3.17;;;21.40;61.00;;;;;;4993608;28;20035;-67
2021/09/28 08:16:36;;;;;;;9.35;2.90;;;21.40;61.00;;;;;;4992983;28;20034;-69
2021/09/28 08:19:03;;;;;;;11.55;3.42;;;21.50;60.90;;;;;;4995496;28;20131;-69
2021/09/28 08:21:29;;;;;;;13.73;3.42;;;21.50;61.00;;;;;;5001972;28;20632;-68
2021/09/28 08:23:55;;;;;;;12.30;3.20;;;21.40;61.00;;;;;;4992425;28;20050;-68
2021/09/28 08:29:10;;;;;;;10.13;3.08;;;21.50;61.00;;;;;;4994469;28;20061;-68
2021/09/28 08:31:42;;;;;;;10.82;2.83;;;21.40;61.00;;;;;;4994291;28;20261;-70
2021/09/28 08:34:08;;;;;;;12.15;3.35;;;21.40;61.00;;;;;;4992726;28;20030;-69
2021/09/28 08:36:34;;;;;;;10.90;3.47;;;21.40;61.00;;;;;;4995270;28;20035;-69
2021/09/28 08:39:00;;;;;;;12.00;3.08;;;21.40;61.00;;;;;;4995609;28;20041;-68
2021/09/28 08:41:26;;;;;;;12.10;2.97;;;21.40;61.00;;;;;;4997694;28;20049;-69
2021/09/28 08:43:52;;;;;;;12.13;3.30;;;21.40;61.00;;;;;;5000947;28;20612;-69
2021/09/28 08:46:20;;;;;;;9.10;2.97;;;21.40;61.10;;;;;;4995796;28;20600;-68
2021/09/28 08:48:47;;;;;;;8.70;2.90;;;21.40;61.00;;;;;;4998086;28;20042;-68
2021/09/28 08:51:14;;;;;;;11.25;3.08;;;21.40;61.00;;;;;;4997339;28;20166;-69
2021/09/28 08:53:41;;;;;;;9.15;2.50;;;21.40;61.00;;;;;;4998175;28;20500;-70
2021/09/28 08:56:09;;;;;;;7.90;2.70;;;21.40;61.00;;;;;;4997137;28;20051;-69
2021/09/28 08:58:54;;;;;;;8.63;2.78;;;21.40;61.00;;;;;;4998686;28;20042;-70
2021/09/28 09:01:19;;;;;;;9.18;2.85;;;21.50;61.00;;;;;;4998030;28;20042;-70
2021/09/28 09:03:45;;;;;;;13.30;3.00;;;21.40;61.00;;;;;;4997353;28;20702;-70
2021/09/28 09:06:11;;;;;;;12.60;3.53;;;21.40;60.90;;;;;;4996409;28;20050;-70
2021/09/28 09:08:37;;;;;;;11.10;3.15;;;21.40;61.00;;;;;;4996389;28;20252;-70
2021/09/28 09:11:05;;;;;;;8.57;2.70;;;21.40;61.00;;;;;;4996821;28;20045;-70
2021/09/28 09:13:34;;;;;;;7.40;2.70;;;21.40;61.00;;;;;;4996521;28;20065;-70
2021/09/28 09:15:59;;;;;;;10.30;2.83;;;21.40;60.90;;;;;;4997949;28;20038;-70
2021/09/28 09:18:25;;;;;;;8.55;2.55;;;21.40;61.00;;;;;;4996618;28;20030;-70
2021/09/28 09:20:51;;;;;;;9.25;2.80;;;21.40;61.00;;;;;;4997121;28;20870;-70
2021/09/28 09:23:32;;;;;;;9.63;2.85;;;21.40;60.90;;;;;;4998433;28;20518;-70
2021/09/28 09:26:11;;;;;;;9.05;2.55;;;21.50;61.00;;;;;;4995608;28;20046;-70
2021/09/28 09:28:55;;;;;;;8.13;2.65;;;21.40;61.00;;;;;;4992363;28;20045;-70
2021/09/28 09:31:33;;;;;;;9.68;2.30;;;21.40;61.00;;;;;;4977070;28;20050;-71
2021/09/28 09:34:10;;;;;;;10.73;2.80;;;21.40;60.90;;;;;;4978719;28;20122;-70
2021/09/28 09:36:37;;;;;;;7.82;2.63;;;21.40;61.00;;;;;;4977560;28;20050;-70
2021/09/28 09:39:06;;;;;;;7.57;2.40;;;21.40;61.00;;;;;;4975573;28;20065;-70
2021/09/28 09:41:33;;;;;;;8.70;2.58;;;21.40;60.90;;;;;;4979117;28;20466;-70
2021/09/28 09:44:05;;;;;;;7.75;2.55;;;21.40;60.90;;;;;;4976626;28;20046;-70
2021/09/28 09:46:45;;;;;;;9.23;2.60;;;21.40;61.00;;;;;;4984365;28;20116;-70
2021/09/28 09:49:21;;;;;;;8.35;2.50;;;21.40;61.00;;;;;;4996929;28;20045;-70
2021/09/28 09:51:49;;;;;;;11.68;2.60;;;21.40;61.00;;;;;;4997673;28;20073;-71
2021/09/28 09:54:28;;;;;;;9.65;2.40;;;21.40;61.00;;;;;;4994520;28;20092;-69
2021/09/28 09:56:53;;;;;;;7.88;2.42;;;21.40;60.90;;;;;;4996671;28;20034;-69
2021/09/28 09:59:21;;;;;;;11.18;2.85;;;21.40;61.00;;;;;;4996296;28;20064;-69
2021/09/28 10:01:48;;;;;;;7.75;2.40;;;21.40;61.00;;;;;;4997296;28;20087;-69
2021/09/28 10:04:16;;;;;;;8.25;2.33;;;21.40;60.90;;;;;;4994434;28;20045;-69
2021/09/28 10:06:42;;;;;;;6.40;2.25;;;21.40;61.00;;;;;;4994697;28;20082;-69
2021/09/28 10:09:22;;;;;;;7.57;2.28;;;21.40;61.00;;;;;;4995533;28;20435;-68
2021/09/28 10:11:53;;;;;;;9.40;2.30;;;21.50;61.00;;;;;;4995527;28;20093;-69
2021/09/28 10:14:35;;;;;;;12.15;2.33;;;21.40;61.00;;;;;;4995625;28;20034;-69
2021/09/28 10:17:21;;;;;;;7.70;2.72;;;21.40;61.00;;;;;;4996156;28;20834;-69
2021/09/28 10:20:08;;;;;;;9.02;2.20;;;21.40;61.00;;;;;;4995311;28;21285;-68
2021/09/28 10:22:41;;;;;;;8.40;2.38;;;21.40;61.00;;;;;;4994930;28;20046;-69
2021/09/28 10:25:18;;;;;;;7.05;2.35;;;21.40;60.90;;;;;;4996529;28;20595;-68
2021/09/28 10:27:45;;;;;;;8.00;2.30;;;21.40;61.00;;;;;;4997761;28;20030;-69
2021/09/28 10:30:34;;;;;;;6.93;2.40;;;21.40;61.00;;;;;;4998275;28;20471;-69
2021/09/28 10:33:00;;;;;;;7.70;2.05;;;21.40;61.00;;;;;;4995953;28;20058;-68
2021/09/28 10:35:26;;;;;;;6.88;2.40;;;21.40;60.90;;;;;;4996626;28;20070;-69
2021/09/28 10:38:01;;;;;;;8.20;2.33;;;21.40;61.00;;;;;;4995652;28;20822;-69
2021/09/28 10:40:27;;;;;;;8.15;2.20;;;21.40;61.00;;;;;;4995129;28;20041;-69
2021/09/28 10:43:01;;;;;;;8.90;2.30;;;21.40;61.00;;;;;;4993817;28;20683;-69
2021/09/28 10:45:29;;;;;;;8.13;1.98;;;21.40;60.90;;;;;;4996821;28;20417;-68
2021/09/28 10:47:56;;;;;;;8.07;2.05;;;21.40;61.00;;;;;;4994302;28;20042;-69
2021/09/28 10:50:29;;;;;;;8.48;2.00;;;21.50;61.00;;;;;;4996945;28;20043;-69
2021/09/28 10:52:57;;;;;;;7.32;2.03;;;21.40;60.90;;;;;;4997363;28;20085;-67
2021/09/28 10:55:26;;;;;;;10.10;2.10;;;21.40;60.90;;;;;;4997924;28;20100;-68
2021/09/28 10:57:59;;;;;;;10.27;2.42;;;21.40;61.00;;;;;;4994970;28;20136;-68
2021/09/28 11:00:44;;;;;;;10.32;2.15;;;21.40;61.00;;;;;;4994705;28;20092;-68
2021/09/28 11:03:11;;;;;;;9.45;1.90;;;21.40;61.00;;;;;;4991344;28;20042;-68
2021/09/28 11:05:42;;;;;;;13.35;2.25;;;21.40;61.00;;;;;;4993981;28;20084;-69
2021/09/28 11:08:10;;;;;;;7.10;1.83;;;21.40;61.00;;;;;;4994131;28;20519;-69
2021/09/28 11:10:37;;;;;;;7.53;2.30;;;21.40;61.10;;;;;;4994287;28;20095;-70
2021/09/28 11:13:12;;;;;;;8.13;2.00;;;21.40;60.90;;;;;;4995496;28;20046;-69
2021/09/28 11:15:38;;;;;;;9.35;2.17;;;21.40;61.00;;;;;;4994536;28;20042;-69
2021/09/28 11:18:07;;;;;;;8.10;1.73;;;21.40;60.90;;;;;;4995349;28;20687;-69
2021/09/28 11:20:34;;;;;;;7.97;2.17;;;21.40;61.00;;;;;;4994242;28;20511;-69
2021/09/28 11:23:09;;;;;;;6.22;1.83;;;21.40;61.00;;;;;;4996310;28;20039;-67
2021/09/28 11:25:36;;;;;;;10.23;2.10;;;21.40;61.00;;;;;;4997113;28;20537;-68
2021/09/28 11:28:03;;;;;;;11.02;2.30;;;21.40;60.90;;;;;;4994432;28;20625;-69
2021/09/28 11:30:34;;;;;;;10.50;2.28;;;21.40;60.80;;;;;;4996238;28;20073;-69
2021/09/28 11:33:04;;;;;;;11.32;2.35;;;21.40;60.80;;;;;;4995772;28;20160;-68
2021/09/28 11:35:31;;;;;;;8.57;2.20;;;21.50;60.80;;;;;;4995464;28;20050;-69
2021/09/28 11:38:04;;;;;;;12.50;2.40;;;21.40;60.70;;;;;;4995076;28;20107;-69
2021/09/28 11:40:39;;;;;;;8.70;2.10;;;21.40;60.70;;;;;;4994257;28;20100;-66
2021/09/28 11:43:18;;;;;;;10.75;2.38;;;21.40;60.70;;;;;;4994582;28;20038;-70
2021/09/28 11:45:43;;;;;;;9.02;2.20;;;21.40;60.60;;;;;;4994127;28;20037;-69
2021/09/28 11:48:09;;;;;;;8.32;2.17;;;21.40;60.50;;;;;;4993661;28;20521;-69
2021/09/28 11:50:35;;;;;;;10.30;2.22;;;21.40;60.40;;;;;;4996490;28;20478;-69
2021/09/28 11:53:07;;;;;;;12.18;2.40;;;21.40;60.40;;;;;;4994217;28;20041;-70
2021/09/28 11:55:33;;;;;;;8.77;2.28;;;21.40;60.50;;;;;;4996295;28;20113;-70
2021/09/28 11:57:59;;;;;;;10.02;2.25;;;21.40;60.50;;;;;;4996674;28;20125;-70
2021/09/28 12:00:25;;;;;;;10.63;2.28;;;21.40;60.50;;;;;;4993934;28;20046;-71
2021/09/28 12:03:02;;;;;;;6.05;1.90;;;21.40;60.60;;;;;;4995201;28;20050;-70
2021/09/28 12:06:03;;;;;;;10.40;2.15;;;21.40;60.60;;;;;;4996398;28;20037;-71
2021/09/28 12:08:31;;;;;;;7.85;2.08;;;21.40;60.60;;;;;;4995676;28;20038;-70
2021/09/28 12:11:02;;;;;;;6.30;1.60;;;21.40;60.70;;;;;;4996802;28;20400;-70
2021/09/28 12:13:29;;;;;;;8.38;1.80;;;21.40;60.70;;;;;;4996732;28;20038;-70
2021/09/28 12:16:16;;;;;;;15.55;2.15;;;21.40;60.60;;;;;;5016487;28;20053;-70
2021/09/28 12:18:42;;;;;;;10.82;1.88;;;21.40;60.60;;;;;;4999400;28;20046;-70
2021/09/28 12:21:17;;;;;;;8.02;1.90;;;21.40;60.60;;;;;;4999848;28;20705;-70
2021/09/28 12:23:43;;;;;;;8.20;1.80;;;21.40;60.70;;;;;;4998620;28;20080;-71
2021/09/28 12:26:27;;;;;;;11.32;2.20;;;21.40;60.70;;;;;;4998775;28;20034;-68
2021/09/28 12:28:54;;;;;;;16.00;2.85;;;21.40;60.80;;;;;;4999880;28;20042;-71
2021/09/28 12:31:37;;;;;;;8.45;2.00;;;21.40;60.90;;;;;;4998672;28;20038;-70
2021/09/28 12:34:03;;;;;;;12.13;2.30;;;21.50;60.80;;;;;;4996830;28;20439;-71
2021/09/28 12:36:28;;;;;;;10.30;1.95;;;21.40;60.80;;;;;;4996715;28;20041;-70
2021/09/28 12:39:32;;;;;;;9.23;1.83;;;21.40;60.70;;;;;;4998002;28;20041;-71
2021/09/28 12:42:04;;;;;;;12.88;2.13;;;21.40;60.70;;;;;;4954232;28;20416;-71
2021/09/28 12:44:31;;;;;;;15.13;2.78;;;21.40;60.80;;;;;;4957190;28;20058;-71
2021/09/28 12:46:57;;;;;;;11.93;2.33;;;21.40;60.80;;;;;;4975205;28;20053;-71